Eureka, Missouri
Current Conditions -  °F | °C
As of 6:54 PM on Friday 24 Oct 2014 (Local Time) from KSUS Reporting Station
Scattered Clouds Scattered Clouds  
Wind Chill: 60°   Ceiling: Unl
Heat Index: 60°   Visibility: 10mi
Dew Point: 52°   Wind: 3mph
Humidity: 75%   Direction: 170°S
Pressure: 29.99"   Gusts: NA
Location:  38.5°N, 90.63°W
Report Text: KSUS 242354Z 17003KT 10SM SCT150 16/11 A2999 RMK AO2 SLP156 T01560111 10233 20156 55007
Loading
Personal Weather Stations






























Interactive Weather Map
Tropical Storm Tracking
New forecast layout! Learn more

10-Day Weather Forecast

Advertisements
Track Severe Weather on mobile